sensor_id;sensor_type;location;lat;lon;timestamp;pressure;altitude;pressure_sealevel;temperature;humidity
58919;BME280;44704;50.122;19.932;2023-02-10T00:01:25;100068.98;;;-5.77;75.47
58919;BME280;44704;50.122;19.932;2023-02-10T00:03:53;100070.30;;;-5.81;75.67
58919;BME280;44704;50.122;19.932;2023-02-10T00:06:22;100070.72;;;-5.85;75.74
58919;BME280;44704;50.122;19.932;2023-02-10T00:08:53;100064.71;;;-5.88;75.54
58919;BME280;44704;50.122;19.932;2023-02-10T00:11:20;100070.41;;;-5.88;75.52
58919;BME280;44704;50.122;19.932;2023-02-10T00:14:08;100074.59;;;-5.90;75.44
58919;BME280;44704;50.122;19.932;2023-02-10T00:16:35;100076.91;;;-5.96;74.77
58919;BME280;44704;50.122;19.932;2023-02-10T00:19:02;100085.91;;;-6.03;74.56
58919;BME280;44704;50.122;19.932;2023-02-10T00:21:29;100081.55;;;-6.15;74.37
58919;BME280;44704;50.122;19.932;2023-02-10T00:23:56;100081.58;;;-6.27;74.68
58919;BME280;44704;50.122;19.932;2023-02-10T00:26:24;100083.09;;;-6.37;74.71
58919;BME280;44704;50.122;19.932;2023-02-10T00:28:52;100082.80;;;-6.49;74.69
58919;BME280;44704;50.122;19.932;2023-02-10T00:31:19;100081.33;;;-6.59;74.79
58919;BME280;44704;50.122;19.932;2023-02-10T00:33:48;100083.05;;;-6.67;75.36
58919;BME280;44704;50.122;19.932;2023-02-10T00:36:15;100088.70;;;-6.73;75.36
58919;BME280;44704;50.122;19.932;2023-02-10T00:38:42;100092.11;;;-6.77;75.83
58919;BME280;44704;50.122;19.932;2023-02-10T00:41:20;100082.75;;;-6.76;75.75
58919;BME280;44704;50.122;19.932;2023-02-10T00:43:48;100076.77;;;-6.74;76.09
58919;BME280;44704;50.122;19.932;2023-02-10T00:46:17;100080.88;;;-6.70;76.20
58919;BME280;44704;50.122;19.932;2023-02-10T00:48:44;100079.98;;;-6.63;76.42
58919;BME280;44704;50.122;19.932;2023-02-10T00:51:12;100081.79;;;-6.58;76.55
58919;BME280;44704;50.122;19.932;2023-02-10T00:53:39;100084.66;;;-6.53;76.39
58919;BME280;44704;50.122;19.932;2023-02-10T00:56:06;100089.40;;;-6.47;76.40
58919;BME280;44704;50.122;19.932;2023-02-10T00:58:34;100086.37;;;-6.41;76.70
58919;BME280;44704;50.122;19.932;2023-02-10T01:01:03;100079.48;;;-6.36;76.43
58919;BME280;44704;50.122;19.932;2023-02-10T01:03:31;100071.59;;;-6.31;76.42
58919;BME280;44704;50.122;19.932;2023-02-10T01:05:58;100065.81;;;-6.26;76.36
58919;BME280;44704;50.122;19.932;2023-02-10T01:08:25;100062.52;;;-6.24;76.00
58919;BME280;44704;50.122;19.932;2023-02-10T01:11:00;100059.98;;;-6.23;75.95
58919;BME280;44704;50.122;19.932;2023-02-10T01:13:28;100059.67;;;-6.24;75.95
58919;BME280;44704;50.122;19.932;2023-02-10T01:15:56;100063.40;;;-6.24;75.88
58919;BME280;44704;50.122;19.932;2023-02-10T01:18:22;100064.48;;;-6.24;75.79
58919;BME280;44704;50.122;19.932;2023-02-10T01:20:49;100063.60;;;-6.24;75.97
58919;BME280;44704;50.122;19.932;2023-02-10T01:23:16;100056.83;;;-6.24;75.94
58919;BME280;44704;50.122;19.932;2023-02-10T01:25:44;100059.08;;;-6.23;76.15
58919;BME280;44704;50.122;19.932;2023-02-10T01:28:11;100052.06;;;-6.21;76.13
58919;BME280;44704;50.122;19.932;2023-02-10T01:30:38;100051.07;;;-6.20;76.12
58919;BME280;44704;50.122;19.932;2023-02-10T01:33:05;100049.23;;;-6.18;76.12
58919;BME280;44704;50.122;19.932;2023-02-10T01:35:32;100049.39;;;-6.18;76.34
58919;BME280;44704;50.122;19.932;2023-02-10T01:37:59;100053.52;;;-6.16;76.08
58919;BME280;44704;50.122;19.932;2023-02-10T01:40:26;100048.45;;;-6.17;75.86
58919;BME280;44704;50.122;19.932;2023-02-10T01:42:53;100046.61;;;-6.16;76.28
58919;BME280;44704;50.122;19.932;2023-02-10T01:45:33;100043.29;;;-6.17;76.23
58919;BME280;44704;50.122;19.932;2023-02-10T01:48:02;100045.20;;;-6.16;75.85
58919;BME280;44704;50.122;19.932;2023-02-10T01:50:36;100043.10;;;-6.17;76.06
58919;BME280;44704;50.122;19.932;2023-02-10T01:53:05;100042.94;;;-6.17;76.13
58919;BME280;44704;50.122;19.932;2023-02-10T01:55:34;100044.50;;;-6.16;76.17
58919;BME280;44704;50.122;19.932;2023-02-10T01:58:05;100041.89;;;-6.17;76.15
58919;BME280;44704;50.122;19.932;2023-02-10T02:00:33;100044.40;;;-6.15;75.92
58919;BME280;44704;50.122;19.932;2023-02-10T02:03:02;100045.80;;;-6.12;76.03
58919;BME280;44704;50.122;19.932;2023-02-10T02:05:39;100039.89;;;-6.11;75.85
58919;BME280;44704;50.122;19.932;2023-02-10T02:11:10;100036.38;;;-6.08;75.65
58919;BME280;44704;50.122;19.932;2023-02-10T02:13:42;100032.06;;;-6.07;75.53
58919;BME280;44704;50.122;19.932;2023-02-10T02:16:43;100028.48;;;-6.06;76.01
58919;BME280;44704;50.122;19.932;2023-02-10T02:22:35;100023.11;;;-6.08;75.57
58919;BME280;44704;50.122;19.932;2023-02-10T02:25:35;100015.64;;;-6.10;75.63
58919;BME280;44704;50.122;19.932;2023-02-10T02:31:27;100023.41;;;-6.15;75.87
58919;BME280;44704;50.122;19.932;2023-02-10T02:34:00;100012.37;;;-6.20;75.44
58919;BME280;44704;50.122;19.932;2023-02-10T02:36:35;100012.46;;;-6.24;75.62
58919;BME280;44704;50.122;19.932;2023-02-10T02:39:04;100006.90;;;-6.28;75.59
58919;BME280;44704;50.122;19.932;2023-02-10T02:41:33;100002.21;;;-6.32;75.88
58919;BME280;44704;50.122;19.932;2023-02-10T02:44:04;100003.59;;;-6.37;75.99
58919;BME280;44704;50.122;19.932;2023-02-10T02:46:52;99996.04;;;-6.40;76.03
58919;BME280;44704;50.122;19.932;2023-02-10T02:49:27;99996.86;;;-6.45;76.03
58919;BME280;44704;50.122;19.932;2023-02-10T02:52:07;100005.70;;;-6.48;76.30
58919;BME280;44704;50.122;19.932;2023-02-10T02:55:05;100004.27;;;-6.50;76.42
58919;BME280;44704;50.122;19.932;2023-02-10T02:57:51;100008.92;;;-6.51;76.44
58919;BME280;44704;50.122;19.932;2023-02-10T03:00:24;100007.68;;;-6.54;76.60
58919;BME280;44704;50.122;19.932;2023-02-10T03:02:53;100008.38;;;-6.57;76.47
58919;BME280;44704;50.122;19.932;2023-02-10T03:05:28;100010.33;;;-6.57;76.69
58919;BME280;44704;50.122;19.932;2023-02-10T03:07:57;100010.88;;;-6.57;76.87
58919;BME280;44704;50.122;19.932;2023-02-10T03:10:24;100011.96;;;-6.57;76.80
58919;BME280;44704;50.122;19.932;2023-02-10T03:12:51;100009.85;;;-6.58;76.88
58919;BME280;44704;50.122;19.932;2023-02-10T03:15:18;100011.45;;;-6.58;77.00
58919;BME280;44704;50.122;19.932;2023-02-10T03:17:46;100018.46;;;-6.57;76.88
58919;BME280;44704;50.122;19.932;2023-02-10T03:20:13;100014.59;;;-6.57;77.07
58919;BME280;44704;50.122;19.932;2023-02-10T03:22:41;100020.56;;;-6.57;77.42
58919;BME280;44704;50.122;19.932;2023-02-10T03:25:08;100021.75;;;-6.56;77.34
58919;BME280;44704;50.122;19.932;2023-02-10T03:27:35;100022.21;;;-6.55;77.25
58919;BME280;44704;50.122;19.932;2023-02-10T03:30:02;100018.98;;;-6.54;77.52
58919;BME280;44704;50.122;19.932;2023-02-10T03:32:30;100015.15;;;-6.52;77.47
58919;BME280;44704;50.122;19.932;2023-02-10T03:34:57;100009.10;;;-6.51;77.30
58919;BME280;44704;50.122;19.932;2023-02-10T03:37:23;100015.29;;;-6.52;77.36
58919;BME280;44704;50.122;19.932;2023-02-10T03:39:50;100017.21;;;-6.51;77.55
58919;BME280;44704;50.122;19.932;2023-02-10T03:42:17;100015.38;;;-6.50;77.57
58919;BME280;44704;50.122;19.932;2023-02-10T03:44:44;100012.16;;;-6.50;77.38
58919;BME280;44704;50.122;19.932;2023-02-10T03:47:11;100011.30;;;-6.47;77.69
58919;BME280;44704;50.122;19.932;2023-02-10T03:49:38;100015.34;;;-6.44;77.68
58919;BME280;44704;50.122;19.932;2023-02-10T03:52:05;100019.15;;;-6.42;77.78
58919;BME280;44704;50.122;19.932;2023-02-10T03:54:32;100027.73;;;-6.41;77.80
58919;BME280;44704;50.122;19.932;2023-02-10T03:57:00;100031.38;;;-6.40;77.83
58919;BME280;44704;50.122;19.932;2023-02-10T03:59:27;100026.69;;;-6.39;77.83
58919;BME280;44704;50.122;19.932;2023-02-10T04:01:54;100026.14;;;-6.38;77.80
58919;BME280;44704;50.122;19.932;2023-02-10T04:04:21;100025.16;;;-6.37;77.92
58919;BME280;44704;50.122;19.932;2023-02-10T04:06:48;100024.01;;;-6.36;77.74
58919;BME280;44704;50.122;19.932;2023-02-10T04:09:15;100021.86;;;-6.35;77.94
58919;BME280;44704;50.122;19.932;2023-02-10T04:11:42;100026.73;;;-6.34;77.92
58919;BME280;44704;50.122;19.932;2023-02-10T04:14:09;100029.11;;;-6.33;77.72
58919;BME280;44704;50.122;19.932;2023-02-10T04:16:36;100031.06;;;-6.30;77.88
58919;BME280;44704;50.122;19.932;2023-02-10T04:19:03;100028.84;;;-6.28;77.87
58919;BME280;44704;50.122;19.932;2023-02-10T04:21:30;100034.93;;;-6.26;77.75
58919;BME280;44704;50.122;19.932;2023-02-10T04:23:58;100032.77;;;-6.26;78.13
58919;BME280;44704;50.122;19.932;2023-02-10T04:26:25;100033.72;;;-6.24;77.77
58919;BME280;44704;50.122;19.932;2023-02-10T04:28:52;100033.07;;;-6.23;77.79
58919;BME280;44704;50.122;19.932;2023-02-10T04:31:18;100040.20;;;-6.21;77.80
58919;BME280;44704;50.122;19.932;2023-02-10T04:33:46;100045.23;;;-6.19;77.81
58919;BME280;44704;50.122;19.932;2023-02-10T04:36:13;100046.97;;;-6.19;77.60
58919;BME280;44704;50.122;19.932;2023-02-10T04:38:39;100050.13;;;-6.19;77.66
58919;BME280;44704;50.122;19.932;2023-02-10T04:41:08;100045.23;;;-6.20;77.48
58919;BME280;44704;50.122;19.932;2023-02-10T04:43:34;100045.48;;;-6.20;77.65
58919;BME280;44704;50.122;19.932;2023-02-10T04:46:01;100045.79;;;-6.22;77.47
58919;BME280;44704;50.122;19.932;2023-02-10T04:48:30;100049.02;;;-6.23;77.73
58919;BME280;44704;50.122;19.932;2023-02-10T04:50:57;100051.38;;;-6.24;77.68
58919;BME280;44704;50.122;19.932;2023-02-10T04:53:24;100054.86;;;-6.23;77.62
58919;BME280;44704;50.122;19.932;2023-02-10T04:55:51;100050.39;;;-6.25;77.72
58919;BME280;44704;50.122;19.932;2023-02-10T04:58:18;100053.23;;;-6.25;77.55
58919;BME280;44704;50.122;19.932;2023-02-10T05:00:45;100050.27;;;-6.26;77.67
58919;BME280;44704;50.122;19.932;2023-02-10T05:03:12;100052.42;;;-6.27;77.67
58919;BME280;44704;50.122;19.932;2023-02-10T05:05:39;100052.77;;;-6.27;77.51
58919;BME280;44704;50.122;19.932;2023-02-10T05:08:07;100050.20;;;-6.28;77.55
58919;BME280;44704;50.122;19.932;2023-02-10T05:10:34;100055.92;;;-6.29;77.46
58919;BME280;44704;50.122;19.932;2023-02-10T05:13:01;100061.55;;;-6.32;77.71
58919;BME280;44704;50.122;19.932;2023-02-10T05:15:28;100058.20;;;-6.35;77.33
58919;BME280;44704;50.122;19.932;2023-02-10T05:17:55;100062.86;;;-6.38;77.43
58919;BME280;44704;50.122;19.932;2023-02-10T05:20:22;100064.06;;;-6.43;77.45
58919;BME280;44704;50.122;19.932;2023-02-10T05:22:49;100067.53;;;-6.48;77.30
58919;BME280;44704;50.122;19.932;2023-02-10T05:25:16;100070.14;;;-6.53;77.22
58919;BME280;44704;50.122;19.932;2023-02-10T05:27:43;100072.74;;;-6.58;77.45
58919;BME280;44704;50.122;19.932;2023-02-10T05:30:11;100072.47;;;-6.62;77.52
58919;BME280;44704;50.122;19.932;2023-02-10T05:32:40;100076.66;;;-6.67;77.60
58919;BME280;44704;50.122;19.932;2023-02-10T05:35:08;100070.74;;;-6.71;77.78
58919;BME280;44704;50.122;19.932;2023-02-10T05:37:36;100076.02;;;-6.74;77.73
58919;BME280;44704;50.122;19.932;2023-02-10T05:40:04;100080.35;;;-6.75;78.12
58919;BME280;44704;50.122;19.932;2023-02-10T05:42:31;100080.19;;;-6.75;78.17
58919;BME280;44704;50.122;19.932;2023-02-10T05:44:58;100078.58;;;-6.75;78.26
58919;BME280;44704;50.122;19.932;2023-02-10T05:47:25;100079.00;;;-6.76;78.39
58919;BME280;44704;50.122;19.932;2023-02-10T05:49:52;100078.89;;;-6.77;78.68
58919;BME280;44704;50.122;19.932;2023-02-10T05:52:19;100081.52;;;-6.77;78.71
58919;BME280;44704;50.122;19.932;2023-02-10T05:54:46;100076.61;;;-6.77;78.83
58919;BME280;44704;50.122;19.932;2023-02-10T05:57:13;100082.94;;;-6.77;78.75
58919;BME280;44704;50.122;19.932;2023-02-10T05:59:40;100087.30;;;-6.76;78.75
58919;BME280;44704;50.122;19.932;2023-02-10T06:02:08;100095.29;;;-6.74;78.59
58919;BME280;44704;50.122;19.932;2023-02-10T06:04:35;100097.11;;;-6.72;78.73
58919;BME280;44704;50.122;19.932;2023-02-10T06:07:02;100095.10;;;-6.71;78.81
58919;BME280;44704;50.122;19.932;2023-02-10T06:09:30;100098.55;;;-6.70;78.63
58919;BME280;44704;50.122;19.932;2023-02-10T06:11:57;100097.61;;;-6.69;78.63
58919;BME280;44704;50.122;19.932;2023-02-10T06:14:24;100106.79;;;-6.69;78.60
58919;BME280;44704;50.122;19.932;2023-02-10T06:16:51;100108.33;;;-6.68;78.75
58919;BME280;44704;50.122;19.932;2023-02-10T06:19:18;100103.17;;;-6.67;78.47
58919;BME280;44704;50.122;19.932;2023-02-10T06:21:45;100110.95;;;-6.68;78.30
58919;BME280;44704;50.122;19.932;2023-02-10T06:24:12;100115.27;;;-6.69;78.55
58919;BME280;44704;50.122;19.932;2023-02-10T06:26:39;100113.05;;;-6.70;78.52
58919;BME280;44704;50.122;19.932;2023-02-10T06:29:07;100111.61;;;-6.66;78.70
58919;BME280;44704;50.122;19.932;2023-02-10T06:31:34;100106.11;;;-6.66;78.54
58919;BME280;44704;50.122;19.932;2023-02-10T06:34:01;100106.70;;;-6.64;78.51
58919;BME280;44704;50.122;19.932;2023-02-10T06:36:28;100108.48;;;-6.61;78.77
58919;BME280;44704;50.122;19.932;2023-02-10T06:38:55;100107.48;;;-6.57;78.62
58919;BME280;44704;50.122;19.932;2023-02-10T06:41:22;100106.45;;;-6.54;78.50
58919;BME280;44704;50.122;19.932;2023-02-10T06:43:49;100101.45;;;-6.51;78.59
58919;BME280;44704;50.122;19.932;2023-02-10T06:46:18;100107.66;;;-6.45;78.72
58919;BME280;44704;50.122;19.932;2023-02-10T06:48:45;100112.91;;;-6.41;78.38
58919;BME280;44704;50.122;19.932;2023-02-10T06:51:12;100115.04;;;-6.36;78.61
58919;BME280;44704;50.122;19.932;2023-02-10T06:53:39;100119.83;;;-6.31;78.50
58919;BME280;44704;50.122;19.932;2023-02-10T06:56:06;100125.81;;;-6.27;78.28
58919;BME280;44704;50.122;19.932;2023-02-10T06:58:33;100125.15;;;-6.25;78.19
58919;BME280;44704;50.122;19.932;2023-02-10T07:01:06;100122.62;;;-6.21;78.31
58919;BME280;44704;50.122;19.932;2023-02-10T07:03:33;100124.74;;;-6.16;78.16
58919;BME280;44704;50.122;19.932;2023-02-10T07:06:01;100122.23;;;-6.10;78.23
58919;BME280;44704;50.122;19.932;2023-02-10T07:08:28;100118.54;;;-6.02;78.45
58919;BME280;44704;50.122;19.932;2023-02-10T07:10:55;100126.63;;;-5.93;78.53
58919;BME280;44704;50.122;19.932;2023-02-10T07:13:22;100131.38;;;-5.77;79.88
58919;BME280;44704;50.122;19.932;2023-02-10T07:15:49;100127.27;;;-5.62;78.69
58919;BME280;44704;50.122;19.932;2023-02-10T07:18:16;100123.16;;;-5.51;77.95
58919;BME280;44704;50.122;19.932;2023-02-10T07:20:43;100125.31;;;-5.41;78.40
58919;BME280;44704;50.122;19.932;2023-02-10T07:23:10;100120.42;;;-5.31;77.99
58919;BME280;44704;50.122;19.932;2023-02-10T07:25:37;100116.03;;;-5.21;77.97
58919;BME280;44704;50.122;19.932;2023-02-10T07:28:03;100113.83;;;-5.09;78.22
58919;BME280;44704;50.122;19.932;2023-02-10T07:30:31;100117.63;;;-4.87;78.33
58919;BME280;44704;50.122;19.932;2023-02-10T07:32:58;100119.63;;;-4.74;77.38
58919;BME280;44704;50.122;19.932;2023-02-10T07:35:26;100116.43;;;-4.66;76.80
58919;BME280;44704;50.122;19.932;2023-02-10T07:37:53;100120.34;;;-4.62;76.15
58919;BME280;44704;50.122;19.932;2023-02-10T07:40:20;100122.95;;;-4.56;76.00
58919;BME280;44704;50.122;19.932;2023-02-10T07:42:48;100125.39;;;-4.48;76.14
58919;BME280;44704;50.122;19.932;2023-02-10T07:45:22;100127.41;;;-4.41;75.77
58919;BME280;44704;50.122;19.932;2023-02-10T07:47:49;100129.37;;;-4.33;75.87
58919;BME280;44704;50.122;19.932;2023-02-10T07:50:16;100128.08;;;-4.25;75.45
58919;BME280;44704;50.122;19.932;2023-02-10T07:52:43;100126.73;;;-4.16;75.03
58919;BME280;44704;50.122;19.932;2023-02-10T07:55:10;100131.14;;;-4.06;75.06
58919;BME280;44704;50.122;19.932;2023-02-10T07:57:37;100136.17;;;-3.97;74.70
58919;BME280;44704;50.122;19.932;2023-02-10T08:00:07;100133.92;;;-3.88;74.64
58919;BME280;44704;50.122;19.932;2023-02-10T08:02:39;100140.58;;;-3.77;74.37
58919;BME280;44704;50.122;19.932;2023-02-10T08:05:06;100140.46;;;-3.68;73.91
58919;BME280;44704;50.122;19.932;2023-02-10T08:07:35;100143.05;;;-3.60;73.37
58919;BME280;44704;50.122;19.932;2023-02-10T08:10:02;100143.04;;;-3.50;73.35
58919;BME280;44704;50.122;19.932;2023-02-10T08:12:30;100144.67;;;-3.40;73.31
58919;BME280;44704;50.122;19.932;2023-02-10T08:14:57;100150.66;;;-3.33;73.14
58919;BME280;44704;50.122;19.932;2023-02-10T08:17:24;100160.45;;;-3.26;72.61
58919;BME280;44704;50.122;19.932;2023-02-10T08:19:50;100164.92;;;-3.19;72.00
58919;BME280;44704;50.122;19.932;2023-02-10T08:22:17;100170.68;;;-3.15;71.54
58919;BME280;44704;50.122;19.932;2023-02-10T08:24:44;100170.53;;;-3.11;71.47
58919;BME280;44704;50.122;19.932;2023-02-10T08:27:11;100168.79;;;-3.04;71.43
58919;BME280;44704;50.122;19.932;2023-02-10T08:29:38;100170.99;;;-2.96;71.33
58919;BME280;44704;50.122;19.932;2023-02-10T08:32:05;100165.42;;;-2.88;71.14
58919;BME280;44704;50.122;19.932;2023-02-10T08:34:32;100160.23;;;-2.78;70.95
58919;BME280;44704;50.122;19.932;2023-02-10T08:37:00;100152.27;;;-2.69;70.52
58919;BME280;44704;50.122;19.932;2023-02-10T08:39:28;100151.70;;;-2.60;70.49
58919;BME280;44704;50.122;19.932;2023-02-10T08:41:56;100149.85;;;-2.47;70.26
58919;BME280;44704;50.122;19.932;2023-02-10T08:44:23;100152.67;;;-2.35;69.96
58919;BME280;44704;50.122;19.932;2023-02-10T08:46:49;100150.33;;;-2.26;69.43
58919;BME280;44704;50.122;19.932;2023-02-10T08:49:16;100149.27;;;-2.17;69.45
58919;BME280;44704;50.122;19.932;2023-02-10T08:51:43;100149.98;;;-2.06;69.27
58919;BME280;44704;50.122;19.932;2023-02-10T08:54:10;100147.52;;;-1.95;69.38
58919;BME280;44704;50.122;19.932;2023-02-10T08:56:37;100145.77;;;-1.84;69.06
58919;BME280;44704;50.122;19.932;2023-02-10T08:59:04;100147.04;;;-1.71;68.80
58919;BME280;44704;50.122;19.932;2023-02-10T09:01:31;100149.17;;;-1.62;68.06
58919;BME280;44704;50.122;19.932;2023-02-10T09:03:58;100153.41;;;-1.57;67.56
58919;BME280;44704;50.122;19.932;2023-02-10T09:06:31;100159.05;;;-1.50;67.33
58919;BME280;44704;50.122;19.932;2023-02-10T09:08:59;100162.59;;;-1.43;67.22
58919;BME280;44704;50.122;19.932;2023-02-10T09:11:26;100163.29;;;-1.37;67.17
58919;BME280;44704;50.122;19.932;2023-02-10T09:13:53;100156.29;;;-1.29;66.63
58919;BME280;44704;50.122;19.932;2023-02-10T09:16:20;100153.94;;;-1.22;65.77
58919;BME280;44704;50.122;19.932;2023-02-10T09:18:47;100148.91;;;-1.15;65.83
58919;BME280;44704;50.122;19.932;2023-02-10T09:21:15;100153.67;;;-1.07;66.21
58919;BME280;44704;50.122;19.932;2023-02-10T09:23:42;100156.19;;;-0.96;65.88
58919;BME280;44704;50.122;19.932;2023-02-10T09:26:10;100154.04;;;-0.87;65.81
58919;BME280;44704;50.122;19.932;2023-02-10T09:28:37;100153.65;;;-0.76;65.10
58919;BME280;44704;50.122;19.932;2023-02-10T09:31:08;100149.45;;;-0.65;65.27
58919;BME280;44704;50.122;19.932;2023-02-10T09:33:35;100150.56;;;-0.52;64.90
58919;BME280;44704;50.122;19.932;2023-02-10T09:36:04;100153.80;;;-0.38;64.59
58919;BME280;44704;50.122;19.932;2023-02-10T09:38:33;100144.39;;;-0.22;64.68
58919;BME280;44704;50.122;19.932;2023-02-10T09:52:41;100134.96;;;0.62;61.60
58919;BME280;44704;50.122;19.932;2023-02-10T09:55:32;100141.49;;;0.80;60.79
58919;BME280;44704;50.122;19.932;2023-02-10T09:58:02;100139.05;;;0.94;60.41
58919;BME280;44704;50.122;19.932;2023-02-10T10:00:37;100144.55;;;1.04;60.17
58919;BME280;44704;50.122;19.932;2023-02-10T10:03:12;100147.23;;;1.12;59.32
58919;BME280;44704;50.122;19.932;2023-02-10T10:06:09;100146.79;;;1.18;58.90
58919;BME280;44704;50.122;19.932;2023-02-10T10:08:53;100143.30;;;1.25;58.24
58919;BME280;44704;50.122;19.932;2023-02-10T10:11:53;100138.79;;;1.31;58.56
58919;BME280;44704;50.122;19.932;2023-02-10T10:14:31;100136.11;;;1.39;58.39
58919;BME280;44704;50.122;19.932;2023-02-10T10:33:53;100110.39;;;2.48;56.54
58919;BME280;44704;50.122;19.932;2023-02-10T10:36:35;100111.70;;;2.62;56.10
58919;BME280;44704;50.122;19.932;2023-02-10T10:39:29;100105.92;;;2.75;55.64
58919;BME280;44704;50.122;19.932;2023-02-10T10:42:01;100108.73;;;2.88;54.58
58919;BME280;44704;50.122;19.932;2023-02-10T10:44:30;100104.09;;;2.95;54.01
58919;BME280;44704;50.122;19.932;2023-02-10T10:49:24;100096.95;;;3.11;54.18
58919;BME280;44704;50.122;19.932;2023-02-10T10:51:51;100093.47;;;3.13;53.74
58919;BME280;44704;50.122;19.932;2023-02-10T10:54:20;100089.84;;;3.14;53.99
58919;BME280;44704;50.122;19.932;2023-02-10T10:56:54;100083.86;;;3.17;53.77
58919;BME280;44704;50.122;19.932;2023-02-10T10:59:29;100088.52;;;3.29;54.07
58919;BME280;44704;50.122;19.932;2023-02-10T11:01:57;100082.45;;;3.46;54.57
58919;BME280;44704;50.122;19.932;2023-02-10T11:04:26;100075.36;;;3.60;54.48
58919;BME280;44704;50.122;19.932;2023-02-10T11:06:56;100069.39;;;3.71;53.86
58919;BME280;44704;50.122;19.932;2023-02-10T11:09:29;100071.04;;;3.79;53.42
58919;BME280;44704;50.122;19.932;2023-02-10T11:12:16;100078.44;;;3.81;53.26
58919;BME280;44704;50.122;19.932;2023-02-10T11:14:47;100080.86;;;3.80;52.25
58919;BME280;44704;50.122;19.932;2023-02-10T11:17:39;100077.78;;;3.71;51.99
58919;BME280;44704;50.122;19.932;2023-02-10T11:22:40;100072.12;;;3.71;53.32
58919;BME280;44704;50.122;19.932;2023-02-10T11:25:36;100069.80;;;3.79;53.32
58919;BME280;44704;50.122;19.932;2023-02-10T11:28:06;100063.41;;;3.87;53.20
58919;BME280;44704;50.122;19.932;2023-02-10T11:30:38;100069.77;;;3.93;52.84
58919;BME280;44704;50.122;19.932;2023-02-10T11:33:19;100065.21;;;3.95;52.29
58919;BME280;44704;50.122;19.932;2023-02-10T11:35:52;100058.44;;;3.97;52.42
58919;BME280;44704;50.122;19.932;2023-02-10T11:38:23;100058.45;;;4.05;52.24
58919;BME280;44704;50.122;19.932;2023-02-10T11:40:56;100059.14;;;4.07;51.58
58919;BME280;44704;50.122;19.932;2023-02-10T11:43:51;100060.70;;;4.11;51.70
58919;BME280;44704;50.122;19.932;2023-02-10T11:46:22;100063.44;;;4.14;51.74
58919;BME280;44704;50.122;19.932;2023-02-10T11:48:55;100063.38;;;4.19;52.08
58919;BME280;44704;50.122;19.932;2023-02-10T11:51:22;100062.17;;;4.31;51.90
58919;BME280;44704;50.122;19.932;2023-02-10T11:53:51;100061.55;;;4.38;51.78
58919;BME280;44704;50.122;19.932;2023-02-10T11:59:34;100062.79;;;4.50;51.65
58919;BME280;44704;50.122;19.932;2023-02-10T12:15:33;100046.77;;;4.34;50.30
58919;BME280;44704;50.122;19.932;2023-02-10T12:25:09;100056.00;;;4.08;51.08
58919;BME280;44704;50.122;19.932;2023-02-10T12:31:13;100054.09;;;3.99;50.26
58919;BME280;44704;50.122;19.932;2023-02-10T12:42:20;100063.62;;;3.76;52.14
58919;BME280;44704;50.122;19.932;2023-02-10T12:47:56;100062.54;;;3.80;51.77
58919;BME280;44704;50.122;19.932;2023-02-10T12:53:25;100068.89;;;3.86;52.43
58919;BME280;44704;50.122;19.932;2023-02-10T12:58:50;100077.10;;;4.07;51.86
58919;BME280;44704;50.122;19.932;2023-02-10T13:01:22;100079.16;;;4.32;52.05
58919;BME280;44704;50.122;19.932;2023-02-10T13:03:54;100082.45;;;4.56;51.86
58919;BME280;44704;50.122;19.932;2023-02-10T13:06:30;100080.92;;;4.69;51.35
58919;BME280;44704;50.122;19.932;2023-02-10T13:09:09;100076.67;;;4.70;51.28
58919;BME280;44704;50.122;19.932;2023-02-10T13:14:21;100056.98;;;4.98;50.81
58919;BME280;44704;50.122;19.932;2023-02-10T13:16:57;100047.39;;;5.07;50.58
58919;BME280;44704;50.122;19.932;2023-02-10T13:31:34;100060.45;;;4.72;51.42
58919;BME280;44704;50.122;19.932;2023-02-10T13:34:23;100060.11;;;4.60;51.71
58919;BME280;44704;50.122;19.932;2023-02-10T13:39:24;100056.14;;;4.32;52.25
58919;BME280;44704;50.122;19.932;2023-02-10T13:45:02;100058.10;;;4.18;53.73
58919;BME280;44704;50.122;19.932;2023-02-10T13:47:36;100068.80;;;4.16;53.83
58919;BME280;44704;50.122;19.932;2023-02-10T13:50:17;100072.73;;;4.11;53.76
58919;BME280;44704;50.122;19.932;2023-02-10T13:52:56;100068.17;;;4.01;53.64
58919;BME280;44704;50.122;19.932;2023-02-10T13:55:37;100075.76;;;3.91;53.71
58919;BME280;44704;50.122;19.932;2023-02-10T14:00:47;100080.60;;;3.70;54.52
58919;BME280;44704;50.122;19.932;2023-02-10T14:06:02;100085.02;;;3.52;54.78
58919;BME280;44704;50.122;19.932;2023-02-10T14:13:42;100092.02;;;3.22;55.48
58919;BME280;44704;50.122;19.932;2023-02-10T14:18:42;100105.89;;;3.06;55.98
58919;BME280;44704;50.122;19.932;2023-02-10T14:21:12;100102.79;;;2.99;56.12
58919;BME280;44704;50.122;19.932;2023-02-10T14:23:51;100102.56;;;2.91;56.37
58919;BME280;44704;50.122;19.932;2023-02-10T14:26:22;100104.39;;;2.83;56.75
58919;BME280;44704;50.122;19.932;2023-02-10T14:28:56;100109.89;;;2.75;56.73
58919;BME280;44704;50.122;19.932;2023-02-10T14:31:28;100110.80;;;2.64;57.30
58919;BME280;44704;50.122;19.932;2023-02-10T14:34:04;100109.80;;;2.56;57.55
58919;BME280;44704;50.122;19.932;2023-02-10T14:36:31;100115.73;;;2.47;57.88
58919;BME280;44704;50.122;19.932;2023-02-10T14:39:00;100124.05;;;2.37;58.09
58919;BME280;44704;50.122;19.932;2023-02-10T14:41:30;100133.12;;;2.25;58.35
58919;BME280;44704;50.122;19.932;2023-02-10T14:43:58;100132.39;;;2.10;58.78
58919;BME280;44704;50.122;19.932;2023-02-10T14:46:30;100134.91;;;1.97;59.31
58919;BME280;44704;50.122;19.932;2023-02-10T14:49:20;100140.23;;;1.82;59.94
58919;BME280;44704;50.122;19.932;2023-02-10T14:51:48;100147.26;;;1.69;60.42
58919;BME280;44704;50.122;19.932;2023-02-10T14:54:25;100151.53;;;1.60;61.02
58919;BME280;44704;50.122;19.932;2023-02-10T14:57:01;100153.02;;;1.51;61.22
58919;BME280;44704;50.122;19.932;2023-02-10T14:59:30;100157.84;;;1.44;61.55